Time;durP1;ratioP1;P1;durP2;ratioP2;P2;SDS_P1;SDS_P2;PMS_P1;PMS_P2;Temp;Humidity;BMP_temperature;BMP_pressure;BME280_temperature;BME280_humidity;BME280_pressure;Samples;Min_cycle;Max_cycle;Signal;HPM_P1;HPM_P2
2021/05/29 00:01:13;;;;;;;0.32;0.32;;;11.20;99.90;;;;;;5088653;28;20192;-73
2021/05/29 00:03:39;;;;;;;0.35;0.30;;;11.20;99.90;;;;;;5091349;28;20159;-74
2021/05/29 00:06:05;;;;;;;0.20;0.20;;;11.20;99.90;;;;;;5094014;28;20160;-74
2021/05/29 00:08:31;;;;;;;1.10;1.00;;;11.30;99.90;;;;;;5095022;28;20152;-74
2021/05/29 00:10:59;;;;;;;0.10;0.10;;;11.30;99.90;;;;;;5095288;28;20191;-75
2021/05/29 00:13:27;;;;;;;0.13;0.10;;;11.10;99.90;;;;;;5095298;28;20156;-74
2021/05/29 00:15:53;;;;;;;0.10;0.10;;;11.00;99.90;;;;;;5095250;28;20182;-74
2021/05/29 00:18:20;;;;;;;0.10;0.10;;;10.90;99.90;;;;;;5096887;28;20159;-74
2021/05/29 00:20:47;;;;;;;0.22;0.22;;;10.90;99.90;;;;;;5115368;28;20182;-73
2021/05/29 00:23:14;;;;;;;0.25;0.25;;;10.90;99.90;;;;;;5115136;28;20202;-73
2021/05/29 00:25:41;;;;;;;0.35;0.35;;;10.90;99.90;;;;;;5115955;28;20190;-74
2021/05/29 00:28:07;;;;;;;0.50;0.50;;;11.00;99.90;;;;;;5115956;28;20152;-74
2021/05/29 00:30:33;;;;;;;0.10;0.10;;;11.10;99.90;;;;;;5115826;28;20250;-74
2021/05/29 00:32:59;;;;;;;0.43;0.43;;;11.20;99.90;;;;;;5115719;28;20159;-74
2021/05/29 00:35:25;;;;;;;0.10;0.10;;;11.20;99.90;;;;;;5115786;28;20162;-74
2021/05/29 00:37:51;;;;;;;1.65;0.43;;;11.20;99.90;;;;;;5115825;28;20159;-74
2021/05/29 00:40:17;;;;;;;0.17;0.17;;;11.30;99.90;;;;;;5115773;28;20191;-74
2021/05/29 00:42:44;;;;;;;0.05;0.05;;;11.30;99.90;;;;;;5104279;28;20176;-73
2021/05/29 00:45:10;;;;;;;0.35;0.35;;;11.30;99.90;;;;;;5095250;28;20315;-74
2021/05/29 00:47:36;;;;;;;2.20;0.82;;;11.30;99.90;;;;;;5095570;28;20153;-73
2021/05/29 00:50:13;;;;;;;0.40;0.40;;;11.30;99.90;;;;;;5095275;28;20215;-73
2021/05/29 00:52:41;;;;;;;0.52;0.52;;;11.30;99.90;;;;;;5095588;28;20184;-74
2021/05/29 00:55:11;;;;;;;0.00;0.00;;;11.30;99.90;;;;;;5095558;28;20171;-74
2021/05/29 00:57:48;;;;;;;0.10;0.10;;;11.30;99.90;;;;;;5095437;28;20156;-74
2021/05/29 01:00:17;;;;;;;0.10;0.10;;;11.30;99.90;;;;;;5095304;28;20515;-74
2021/05/29 01:02:43;;;;;;;0.25;0.25;;;11.30;99.90;;;;;;5095270;28;20160;-74
2021/05/29 01:05:11;;;;;;;0.63;0.63;;;11.40;99.90;;;;;;5095358;28;20196;-74
2021/05/29 01:07:37;;;;;;;0.20;0.20;;;11.40;99.90;;;;;;5095299;28;20544;-73
2021/05/29 01:10:06;;;;;;;0.57;0.47;;;11.30;99.90;;;;;;5095154;28;20156;-73
2021/05/29 01:12:32;;;;;;;0.25;0.25;;;11.20;99.90;;;;;;5095120;28;20199;-73
2021/05/29 01:14:59;;;;;;;2.85;0.70;;;11.20;99.90;;;;;;5092714;28;20219;-73
2021/05/29 01:17:29;;;;;;;0.10;0.10;;;11.20;99.90;;;;;;5091966;28;20172;-74
2021/05/29 01:19:54;;;;;;;0.10;0.10;;;11.20;99.90;;;;;;5074039;28;20542;-74
2021/05/29 01:22:39;;;;;;;0.38;0.38;;;11.20;99.90;;;;;;5091933;28;20243;-73
2021/05/29 01:25:17;;;;;;;0.98;0.57;;;11.20;99.90;;;;;;5091746;28;20270;-73
2021/05/29 01:27:44;;;;;;;0.10;0.10;;;11.00;99.90;;;;;;5091826;28;20160;-74
2021/05/29 01:30:11;;;;;;;0.10;0.10;;;11.00;99.90;;;;;;5091742;28;20152;-73
2021/05/29 01:32:37;;;;;;;0.30;0.30;;;11.00;99.90;;;;;;5091815;28;20155;-73
2021/05/29 01:35:11;;;;;;;0.93;0.93;;;11.00;99.90;;;;;;5091775;28;20224;-73
2021/05/29 01:37:38;;;;;;;0.08;0.08;;;11.10;99.90;;;;;;5091530;28;20156;-73
2021/05/29 01:40:07;;;;;;;0.25;0.25;;;11.20;99.90;;;;;;5090736;28;20163;-74
2021/05/29 01:42:36;;;;;;;0.32;0.32;;;11.00;99.90;;;;;;5111733;28;20197;-73
2021/05/29 01:45:04;;;;;;;0.75;0.75;;;10.90;99.90;;;;;;5111528;28;20219;-74
2021/05/29 01:47:31;;;;;;;0.15;0.15;;;10.80;99.90;;;;;;5111850;28;20223;-74
2021/05/29 01:49:57;;;;;;;0.10;0.10;;;10.80;99.90;;;;;;5111738;28;20152;-73
2021/05/29 01:52:46;;;;;;;0.20;0.20;;;10.80;99.90;;;;;;5111495;28;20187;-73
2021/05/29 01:55:12;;;;;;;0.40;0.40;;;10.80;99.90;;;;;;5111504;28;20163;-73
2021/05/29 01:57:38;;;;;;;0.13;0.13;;;10.60;99.90;;;;;;5111374;28;20160;-74
2021/05/29 02:00:05;;;;;;;0.20;0.20;;;10.60;99.90;;;;;;5111551;28;20163;-73
2021/05/29 02:02:31;;;;;;;0.40;0.25;;;10.50;99.90;;;;;;5111431;28;20159;-73
2021/05/29 02:04:57;;;;;;;0.20;0.20;;;10.40;99.90;;;;;;5093136;28;20202;-73
2021/05/29 02:07:25;;;;;;;0.10;0.10;;;10.50;99.90;;;;;;5111309;28;20155;-73
2021/05/29 02:09:51;;;;;;;0.03;0.03;;;10.50;99.90;;;;;;5111324;28;20189;-73
2021/05/29 02:12:17;;;;;;;0.10;0.10;;;10.50;99.90;;;;;;5111188;28;20187;-73
2021/05/29 02:14:43;;;;;;;0.43;0.43;;;10.50;99.90;;;;;;5111047;28;20159;-73
2021/05/29 02:17:10;;;;;;;0.65;0.65;;;10.50;99.90;;;;;;5111029;28;20171;-73
2021/05/29 02:19:36;;;;;;;0.10;0.10;;;10.50;99.90;;;;;;5092803;28;20175;-73
2021/05/29 02:22:02;;;;;;;0.17;0.17;;;10.40;99.90;;;;;;5092777;28;20548;-73
2021/05/29 02:24:28;;;;;;;0.00;0.00;;;10.40;99.90;;;;;;5110794;28;20191;-74
2021/05/29 02:26:54;;;;;;;0.13;0.13;;;10.40;99.90;;;;;;5092456;28;20190;-73
2021/05/29 02:29:20;;;;;;;0.10;0.10;;;10.30;99.90;;;;;;5110809;28;20160;-73
2021/05/29 02:31:45;;;;;;;0.30;0.30;;;10.20;99.90;;;;;;5110795;28;20206;-73
2021/05/29 02:34:11;;;;;;;0.63;0.40;;;10.10;99.90;;;;;;5092479;28;20167;-73
2021/05/29 02:36:37;;;;;;;0.05;0.05;;;10.10;99.90;;;;;;5110690;28;20162;-73
2021/05/29 02:39:04;;;;;;;0.30;0.30;;;10.10;99.90;;;;;;5110691;28;20167;-73
2021/05/29 02:41:30;;;;;;;0.20;0.20;;;10.20;99.90;;;;;;5110695;28;20195;-73
2021/05/29 02:43:56;;;;;;;0.43;0.43;;;10.20;99.90;;;;;;5110410;28;20299;-73
2021/05/29 02:46:22;;;;;;;0.20;0.20;;;10.30;99.90;;;;;;5110441;28;20257;-73
2021/05/29 02:48:48;;;;;;;0.73;0.57;;;10.30;99.90;;;;;;5110513;28;20155;-73
2021/05/29 02:51:14;;;;;;;0.20;0.20;;;10.30;99.90;;;;;;5110450;28;20191;-73
2021/05/29 02:53:40;;;;;;;0.30;0.30;;;10.40;99.90;;;;;;5110269;28;20172;-73
2021/05/29 02:56:05;;;;;;;0.40;0.40;;;10.40;99.90;;;;;;5092091;28;20163;-73
2021/05/29 02:58:31;;;;;;;0.10;0.10;;;10.50;99.90;;;;;;5110272;28;20677;-73
2021/05/29 03:00:57;;;;;;;0.10;0.10;;;10.60;99.90;;;;;;5110289;28;20252;-73
2021/05/29 03:03:23;;;;;;;0.20;0.20;;;10.50;99.90;;;;;;5110181;28;20147;-73
2021/05/29 03:05:49;;;;;;;0.00;0.00;;;10.50;99.90;;;;;;5110128;28;20195;-73
2021/05/29 03:08:17;;;;;;;0.40;0.40;;;10.50;99.90;;;;;;5110120;28;20173;-73
2021/05/29 03:10:45;;;;;;;0.30;0.30;;;10.60;99.90;;;;;;5109920;28;20183;-73
2021/05/29 03:13:12;;;;;;;0.10;0.10;;;10.60;99.90;;;;;;5109782;28;20155;-73
2021/05/29 03:15:38;;;;;;;0.45;0.45;;;10.60;99.90;;;;;;5109972;28;20163;-73
2021/05/29 03:18:05;;;;;;;0.68;0.68;;;10.60;99.90;;;;;;5109882;28;20159;-73
2021/05/29 03:20:34;;;;;;;0.98;0.30;;;10.70;99.90;;;;;;5109820;28;20190;-73
2021/05/29 03:23:00;;;;;;;1.10;0.68;;;10.80;99.90;;;;;;5104609;28;20204;-73
2021/05/29 03:25:26;;;;;;;0.35;0.35;;;10.70;99.90;;;;;;5109577;28;20254;-73
2021/05/29 03:27:53;;;;;;;0.10;0.10;;;10.70;99.90;;;;;;5109840;28;20151;-73
2021/05/29 03:30:25;;;;;;;0.52;0.25;;;10.70;99.90;;;;;;5091326;28;20228;-73
2021/05/29 03:32:53;;;;;;;0.10;0.10;;;10.70;99.90;;;;;;5109722;28;20152;-73
2021/05/29 03:35:19;;;;;;;0.40;0.40;;;10.70;99.90;;;;;;5109679;28;20223;-73
2021/05/29 03:37:46;;;;;;;0.10;0.10;;;10.70;99.90;;;;;;5091047;28;20671;-73
2021/05/29 03:40:13;;;;;;;0.30;0.30;;;10.70;99.90;;;;;;5091237;28;20266;-73
2021/05/29 03:42:40;;;;;;;0.30;0.30;;;10.70;99.90;;;;;;5109634;28;20163;-73
2021/05/29 03:45:09;;;;;;;0.70;0.70;;;10.70;99.90;;;;;;5109313;28;20219;-73
2021/05/29 03:47:35;;;;;;;0.20;0.20;;;10.70;99.90;;;;;;5109827;28;20662;-73
2021/05/29 03:50:02;;;;;;;0.40;0.32;;;10.80;99.90;;;;;;5091337;28;20168;-73
2021/05/29 03:52:28;;;;;;;0.15;0.15;;;10.80;99.90;;;;;;5109394;28;20190;-73
2021/05/29 03:54:54;;;;;;;0.38;0.38;;;10.90;99.90;;;;;;5109455;28;20624;-73
2021/05/29 03:57:20;;;;;;;0.10;0.10;;;10.90;99.90;;;;;;5091299;28;20701;-73
2021/05/29 03:59:46;;;;;;;0.32;0.32;;;11.00;99.90;;;;;;5091516;28;20163;-73
2021/05/29 04:02:11;;;;;;;0.30;0.30;;;11.10;99.90;;;;;;5091195;28;20199;-73
2021/05/29 04:04:37;;;;;;;0.20;0.20;;;11.20;99.90;;;;;;5109314;28;20191;-73
2021/05/29 04:07:03;;;;;;;0.10;0.10;;;11.30;99.90;;;;;;5109197;28;20177;-72
2021/05/29 04:09:29;;;;;;;0.15;0.15;;;11.30;99.90;;;;;;5109030;28;20155;-73
2021/05/29 04:11:56;;;;;;;0.10;0.10;;;11.40;99.90;;;;;;5109256;28;20191;-73
2021/05/29 04:14:23;;;;;;;0.05;0.05;;;11.40;99.90;;;;;;5109346;28;20215;-73
2021/05/29 04:16:49;;;;;;;0.20;0.20;;;11.40;99.90;;;;;;5109251;28;20159;-73
2021/05/29 04:19:15;;;;;;;0.10;0.10;;;11.40;99.90;;;;;;5109238;28;20171;-73
2021/05/29 04:21:40;;;;;;;0.20;0.20;;;11.50;99.90;;;;;;5109109;28;20715;-73
2021/05/29 04:24:07;;;;;;;0.20;0.20;;;11.60;99.90;;;;;;5090847;28;20199;-73
2021/05/29 04:26:33;;;;;;;0.00;0.00;;;11.70;99.90;;;;;;5109159;28;20155;-72
2021/05/29 04:28:59;;;;;;;0.75;0.75;;;11.90;99.90;;;;;;5090850;28;20171;-73
2021/05/29 04:31:25;;;;;;;0.20;0.20;;;12.10;99.90;;;;;;5108976;28;20191;-73
2021/05/29 04:33:51;;;;;;;0.25;0.25;;;12.20;99.90;;;;;;5109097;28;20229;-73
2021/05/29 04:36:17;;;;;;;0.20;0.20;;;12.20;99.90;;;;;;5090797;28;20199;-73
2021/05/29 04:38:43;;;;;;;0.10;0.10;;;12.30;99.90;;;;;;5109109;28;20163;-73
2021/05/29 04:41:09;;;;;;;0.00;0.00;;;12.20;99.90;;;;;;5109065;28;20231;-73
2021/05/29 04:43:35;;;;;;;0.10;0.10;;;12.30;99.90;;;;;;5108616;28;20246;-73
2021/05/29 04:46:01;;;;;;;0.20;0.20;;;12.30;99.90;;;;;;5108937;28;20513;-72
2021/05/29 04:48:26;;;;;;;0.73;0.73;;;12.20;99.90;;;;;;5108999;28;20159;-73
2021/05/29 04:53:37;;;;;;;0.55;0.55;;;12.20;99.90;;;;;;5112794;28;20158;-73
2021/05/29 04:56:03;;;;;;;0.28;0.28;;;12.40;99.90;;;;;;5112680;28;20167;-72
2021/05/29 04:58:30;;;;;;;0.20;0.20;;;12.40;99.90;;;;;;5094618;28;20225;-72
2021/05/29 05:00:56;;;;;;;0.20;0.20;;;12.50;99.90;;;;;;5112452;28;20187;-73
2021/05/29 05:03:23;;;;;;;0.47;0.47;;;12.60;99.90;;;;;;5112590;28;20159;-73
2021/05/29 05:05:49;;;;;;;0.63;0.50;;;12.80;99.90;;;;;;5112336;28;20191;-73
2021/05/29 05:08:15;;;;;;;0.30;0.30;;;12.90;99.90;;;;;;5112379;28;20257;-73
2021/05/29 05:10:41;;;;;;;0.73;0.73;;;13.00;99.90;;;;;;5112462;28;20187;-73
2021/05/29 05:13:07;;;;;;;0.13;0.13;;;13.30;99.90;;;;;;5093947;28;20163;-73
2021/05/29 05:15:33;;;;;;;0.05;0.05;;;13.40;99.90;;;;;;5112333;28;20163;-74
2021/05/29 05:17:59;;;;;;;0.10;0.10;;;13.30;99.90;;;;;;5112321;28;20215;-73
2021/05/29 05:20:28;;;;;;;0.30;0.30;;;13.30;99.90;;;;;;5112143;28;20179;-73
2021/05/29 05:22:54;;;;;;;0.17;0.17;;;13.30;99.90;;;;;;5112113;28;20209;-73
2021/05/29 05:25:20;;;;;;;0.38;0.35;;;13.50;99.90;;;;;;5112084;28;20596;-73
2021/05/29 05:27:46;;;;;;;0.20;0.20;;;13.80;99.90;;;;;;5112034;28;20159;-73
2021/05/29 05:30:14;;;;;;;0.17;0.17;;;14.10;99.90;;;;;;5112058;28;20236;-73
2021/05/29 05:32:42;;;;;;;0.32;0.22;;;14.20;99.90;;;;;;5112017;28;20205;-73
2021/05/29 05:35:12;;;;;;;0.50;0.50;;;14.40;99.90;;;;;;5111765;28;20201;-73
2021/05/29 05:37:38;;;;;;;0.35;0.35;;;14.60;99.90;;;;;;5111856;28;20182;-73
2021/05/29 05:40:05;;;;;;;0.20;0.20;;;14.60;99.90;;;;;;5093718;28;20235;-71
2021/05/29 05:42:32;;;;;;;5.30;0.30;;;14.60;99.90;;;;;;5111786;28;20160;-74
2021/05/29 05:44:58;;;;;;;1.90;0.73;;;14.90;99.90;;;;;;5111548;28;20222;-73
2021/05/29 05:47:24;;;;;;;0.10;0.10;;;15.10;99.90;;;;;;5111796;28;20167;-73
2021/05/29 05:49:50;;;;;;;0.55;0.47;;;15.20;99.90;;;;;;5093478;28;20168;-73
2021/05/29 05:52:16;;;;;;;0.15;0.15;;;15.30;99.90;;;;;;5111694;28;20187;-74
2021/05/29 05:54:42;;;;;;;0.10;0.10;;;15.30;99.90;;;;;;5111831;28;20230;-74
2021/05/29 05:57:08;;;;;;;0.55;0.55;;;15.00;99.90;;;;;;5093548;28;20207;-73
2021/05/29 05:59:34;;;;;;;1.00;0.73;;;14.70;99.90;;;;;;5091758;28;20172;-74
2021/05/29 06:02:01;;;;;;;0.10;0.10;;;14.80;99.90;;;;;;5093887;28;20249;-73
2021/05/29 06:04:26;;;;;;;0.43;0.43;;;14.80;99.90;;;;;;5091162;28;20187;-73
2021/05/29 06:06:52;;;;;;;0.30;0.30;;;15.20;99.90;;;;;;5090920;28;20153;-72
2021/05/29 06:09:18;;;;;;;1.35;0.88;;;15.40;99.90;;;;;;5090865;28;20216;-72
2021/05/29 06:11:45;;;;;;;0.20;0.20;;;15.60;99.90;;;;;;5090648;28;20282;-72
2021/05/29 06:19:25;;;;;;;0.22;0.22;;;16.20;99.90;;;;;;5090723;28;20198;-73
2021/05/29 06:21:53;;;;;;;0.10;0.10;;;16.50;99.90;;;;;;5090460;28;20192;-72
2021/05/29 06:24:25;;;;;;;0.40;0.40;;;16.80;99.90;;;;;;5090525;28;20196;-72
2021/05/29 06:26:52;;;;;;;0.30;0.30;;;16.80;99.90;;;;;;5090409;28;20174;-72
2021/05/29 06:29:18;;;;;;;0.20;0.20;;;16.60;99.90;;;;;;5090404;28;20164;-72
2021/05/29 06:31:46;;;;;;;0.98;0.57;;;16.30;99.90;;;;;;5090379;28;20187;-73
2021/05/29 06:34:12;;;;;;;0.10;0.10;;;16.70;99.90;;;;;;5090268;28;20166;-72
2021/05/29 06:36:38;;;;;;;0.43;0.43;;;17.70;99.90;;;;;;5090434;28;20171;-72
2021/05/29 06:39:06;;;;;;;0.57;0.57;;;18.80;99.90;;;;;;5090324;28;20160;-72
2021/05/29 06:41:33;;;;;;;0.30;0.30;;;19.00;99.90;;;;;;5090131;28;20191;-72
2021/05/29 06:43:59;;;;;;;0.10;0.10;;;18.80;99.90;;;;;;5089924;28;20219;-72
2021/05/29 06:46:25;;;;;;;0.52;0.52;;;18.30;99.90;;;;;;5090084;28;20198;-72
2021/05/29 06:48:52;;;;;;;0.75;0.30;;;17.80;99.90;;;;;;5090120;28;20163;-72
2021/05/29 06:51:30;;;;;;;0.17;0.17;;;17.40;99.90;;;;;;5089975;28;20188;-72
2021/05/29 06:53:57;;;;;;;0.95;0.63;;;16.90;99.90;;;;;;5089791;28;20149;-72
2021/05/29 06:59:07;;;;;;;0.08;0.08;;;16.90;99.90;;;;;;5090149;28;20163;-73
2021/05/29 07:01:33;;;;;;;0.15;0.15;;;16.80;99.90;;;;;;5089736;28;20259;-72
2021/05/29 07:03:59;;;;;;;1.30;0.52;;;17.30;99.90;;;;;;5089772;28;20274;-73
2021/05/29 07:06:25;;;;;;;0.20;0.10;;;17.70;99.90;;;;;;5089789;28;20161;-72
2021/05/29 07:08:54;;;;;;;3.65;0.57;;;17.90;99.90;;;;;;5089880;28;20168;-73
2021/05/29 07:11:20;;;;;;;0.47;0.43;;;18.50;99.90;;;;;;5089858;28;20190;-73
2021/05/29 07:13:47;;;;;;;1.20;1.17;;;18.20;99.90;;;;;;5088476;28;20187;-73
2021/05/29 07:16:13;;;;;;;1.38;1.27;;;17.70;99.90;;;;;;5089584;28;20148;-73
2021/05/29 07:18:46;;;;;;;0.63;0.63;;;17.60;99.90;;;;;;5089590;28;20168;-73
2021/05/29 07:21:13;;;;;;;0.17;0.17;;;19.00;99.90;;;;;;5088705;28;20200;-73
2021/05/29 07:23:39;;;;;;;1.15;0.70;;;18.80;99.90;;;;;;5071307;28;20267;-73
2021/05/29 07:26:06;;;;;;;0.22;0.22;;;18.50;99.90;;;;;;5088319;28;20156;-73
2021/05/29 07:28:32;;;;;;;0.10;0.10;;;18.60;99.90;;;;;;5089608;28;20247;-72
2021/05/29 07:30:59;;;;;;;1.30;1.23;;;18.50;99.90;;;;;;5088144;28;20637;-72
2021/05/29 07:33:26;;;;;;;0.57;0.57;;;19.50;99.90;;;;;;5090427;28;20171;-73
2021/05/29 07:35:53;;;;;;;0.75;0.75;;;19.90;99.90;;;;;;5091506;28;20599;-73
2021/05/29 07:38:20;;;;;;;0.22;0.22;;;20.60;99.90;;;;;;5091365;28;20167;-73
2021/05/29 07:40:46;;;;;;;0.60;0.60;;;22.10;99.90;;;;;;5109440;28;20197;-73
2021/05/29 07:43:12;;;;;;;0.70;0.70;;;22.10;99.90;;;;;;5109256;28;20151;-73
2021/05/29 07:45:38;;;;;;;0.47;0.47;;;22.80;99.90;;;;;;5109521;28;20182;-71
2021/05/29 07:48:05;;;;;;;0.63;0.63;;;20.90;99.90;;;;;;5091202;28;20162;-71
2021/05/29 07:50:31;;;;;;;0.10;0.10;;;19.80;99.90;;;;;;5108257;28;20218;-71
2021/05/29 07:52:56;;;;;;;0.80;0.40;;;19.20;99.90;;;;;;5090844;28;20186;-71
2021/05/29 07:55:22;;;;;;;0.22;0.22;;;19.60;99.90;;;;;;5109150;28;20195;-71
2021/05/29 07:57:48;;;;;;;0.10;0.10;;;19.90;99.90;;;;;;5109182;28;20167;-71
2021/05/29 08:00:22;;;;;;;0.43;0.43;;;19.30;99.90;;;;;;5109165;28;20193;-71
2021/05/29 08:02:47;;;;;;;0.15;0.15;;;18.20;99.90;;;;;;5090978;28;20162;-71
2021/05/29 08:05:18;;;;;;;0.20;0.20;;;18.30;99.90;;;;;;5109297;28;20250;-71
2021/05/29 08:07:44;;;;;;;0.35;0.35;;;19.40;99.90;;;;;;5109222;28;20159;-71
2021/05/29 08:10:12;;;;;;;0.10;0.10;;;19.10;99.90;;;;;;5109129;28;20167;-72
2021/05/29 08:12:38;;;;;;;0.22;0.22;;;19.00;99.90;;;;;;5091042;28;20586;-71
2021/05/29 08:15:06;;;;;;;0.30;0.30;;;20.10;99.90;;;;;;5109193;28;20298;-71
2021/05/29 08:17:32;;;;;;;0.40;0.40;;;21.60;99.90;;;;;;5109263;28;20162;-72
2021/05/29 08:19:58;;;;;;;0.82;0.82;;;22.30;99.90;;;;;;5091096;28;20174;-71
2021/05/29 08:22:23;;;;;;;0.52;0.52;;;21.60;99.90;;;;;;5109000;28;20333;-71
2021/05/29 08:24:49;;;;;;;1.33;1.10;;;21.50;99.90;;;;;;5110561;28;20277;-71
2021/05/29 08:27:15;;;;;;;0.77;0.57;;;21.00;99.90;;;;;;5113126;28;20632;-70
2021/05/29 08:29:41;;;;;;;0.35;0.30;;;20.70;99.90;;;;;;5113120;28;20187;-71
2021/05/29 08:32:07;;;;;;;0.17;0.17;;;20.70;99.90;;;;;;5113005;28;20247;-71
2021/05/29 08:34:33;;;;;;;0.65;0.45;;;20.10;99.90;;;;;;5113165;28;20186;-71
2021/05/29 08:36:59;;;;;;;0.57;0.57;;;19.20;99.90;;;;;;5113240;28;20168;-71
2021/05/29 08:39:25;;;;;;;0.65;0.65;;;18.70;99.90;;;;;;5107453;28;20187;-71
2021/05/29 08:41:51;;;;;;;1.73;0.55;;;18.10;99.90;;;;;;5112774;28;20217;-71
2021/05/29 08:44:17;;;;;;;1.55;0.90;;;17.80;99.90;;;;;;5112406;28;20282;-70
2021/05/29 08:46:43;;;;;;;1.35;0.65;;;17.90;99.90;;;;;;5112747;28;20160;-71
2021/05/29 08:49:09;;;;;;;0.30;0.30;;;18.60;99.90;;;;;;5112812;28;20187;-72
2021/05/29 08:51:35;;;;;;;0.05;0.05;;;20.30;99.90;;;;;;5112592;28;20202;-71
2021/05/29 08:54:01;;;;;;;0.28;0.28;;;21.00;99.90;;;;;;5112616;28;20159;-73
2021/05/29 08:56:28;;;;;;;0.25;0.25;;;21.00;99.90;;;;;;5110312;28;20179;-73
2021/05/29 08:58:56;;;;;;;0.30;0.30;;;21.10;99.90;;;;;;5102727;28;20186;-72
2021/05/29 09:01:24;;;;;;;0.30;0.30;;;21.40;99.90;;;;;;5092560;28;20198;-72
2021/05/29 09:03:55;;;;;;;0.20;0.20;;;21.80;99.90;;;;;;5079991;28;20199;-73
2021/05/29 09:06:42;;;;;;;0.50;0.50;;;20.50;99.90;;;;;;5090356;28;20178;-72
2021/05/29 09:09:11;;;;;;;0.68;0.68;;;19.90;99.90;;;;;;5091616;28;20154;-73
2021/05/29 09:11:50;;;;;;;1.55;0.70;;;20.00;99.90;;;;;;5073506;28;20203;-73
2021/05/29 09:14:28;;;;;;;0.15;0.15;;;20.30;99.90;;;;;;5090528;28;20201;-73
2021/05/29 09:17:03;;;;;;;0.10;0.10;;;20.20;99.90;;;;;;5091399;28;20159;-73
2021/05/29 09:19:30;;;;;;;0.40;0.40;;;20.80;99.90;;;;;;5091532;28;20166;-73
2021/05/29 09:21:56;;;;;;;0.47;0.40;;;21.90;99.90;;;;;;5091357;28;20195;-73
2021/05/29 09:24:22;;;;;;;0.10;0.10;;;23.10;99.90;;;;;;5073367;28;20191;-72
2021/05/29 09:26:51;;;;;;;0.15;0.15;;;24.20;99.90;;;;;;5073456;28;20155;-73
2021/05/29 09:29:22;;;;;;;0.10;0.10;;;24.20;99.90;;;;;;5094789;28;20178;-73
2021/05/29 09:32:06;;;;;;;0.30;0.30;;;24.40;99.90;;;;;;5106713;28;20278;-73
2021/05/29 09:34:50;;;;;;;0.68;0.68;;;25.60;99.90;;;;;;5107644;28;20186;-73
2021/05/29 09:37:26;;;;;;;0.80;0.80;;;26.10;99.90;;;;;;5105194;28;20198;-71
2021/05/29 09:40:06;;;;;;;0.40;0.40;;;25.70;99.90;;;;;;5093421;28;20241;-72
2021/05/29 09:42:41;;;;;;;0.35;0.35;;;24.20;99.90;;;;;;5095673;28;20191;-73
2021/05/29 09:45:27;;;;;;;0.30;0.30;;;24.50;99.90;;;;;;5103858;28;20229;-73
2021/05/29 09:48:08;;;;;;;0.70;0.70;;;22.70;99.90;;;;;;5108635;28;20219;-73
2021/05/29 09:50:34;;;;;;;0.68;0.68;;;21.40;99.90;;;;;;5098972;28;20183;-74
2021/05/29 09:53:00;;;;;;;0.75;0.30;;;21.70;99.90;;;;;;5093195;28;20191;-73
2021/05/29 09:55:38;;;;;;;0.82;0.82;;;22.50;99.90;;;;;;5091123;28;20156;-73
2021/05/29 09:58:04;;;;;;;0.40;0.38;;;21.70;99.90;;;;;;5075677;28;20198;-74
2021/05/29 10:00:41;;;;;;;0.43;0.43;;;21.00;99.90;;;;;;5093205;28;20198;-73
2021/05/29 10:03:07;;;;;;;0.88;0.68;;;20.60;99.90;;;;;;5093085;28;20171;-73
2021/05/29 10:05:35;;;;;;;2.22;0.57;;;19.70;99.90;;;;;;5092967;28;20323;-73
2021/05/29 10:08:02;;;;;;;0.45;0.45;;;19.60;99.90;;;;;;5111158;28;20205;-72
2021/05/29 10:10:29;;;;;;;0.40;0.40;;;19.80;99.90;;;;;;5092871;28;20164;-73
2021/05/29 10:12:55;;;;;;;0.52;0.52;;;19.30;99.90;;;;;;5111044;28;20163;-72
2021/05/29 10:15:21;;;;;;;0.10;0.10;;;19.00;99.90;;;;;;5099611;28;20187;-73
2021/05/29 10:17:47;;;;;;;0.50;0.50;;;19.10;99.90;;;;;;5090671;28;20215;-73
2021/05/29 10:20:16;;;;;;;0.65;0.65;;;19.50;99.90;;;;;;5090700;28;20161;-73
2021/05/29 10:22:45;;;;;;;0.22;0.22;;;19.40;99.90;;;;;;5090386;28;20172;-73
2021/05/29 10:25:14;;;;;;;0.20;0.20;;;19.70;99.90;;;;;;5072535;28;20252;-73
2021/05/29 10:27:44;;;;;;;0.50;0.50;;;19.10;99.90;;;;;;5090475;28;20232;-73
2021/05/29 10:30:12;;;;;;;0.45;0.45;;;18.90;99.90;;;;;;5072427;28;20167;-73
2021/05/29 10:32:38;;;;;;;0.38;0.38;;;18.60;99.90;;;;;;5090443;28;20239;-73
2021/05/29 10:35:11;;;;;;;0.20;0.20;;;18.80;99.90;;;;;;5072334;28;20190;-73
2021/05/29 10:37:44;;;;;;;0.40;0.40;;;19.30;99.90;;;;;;5108423;28;20224;-73
2021/05/29 10:40:22;;;;;;;1.65;0.88;;;19.60;99.90;;;;;;5110070;28;20170;-73
2021/05/29 10:43:11;;;;;;;0.30;0.30;;;19.10;99.90;;;;;;5089598;28;20218;-73
2021/05/29 10:45:56;;;;;;;0.30;0.30;;;18.80;99.90;;;;;;5071694;28;20196;-73
2021/05/29 10:48:27;;;;;;;2.40;0.70;;;19.00;99.90;;;;;;5088985;28;20728;-73
2021/05/29 10:51:03;;;;;;;0.30;0.30;;;19.30;99.90;;;;;;5089523;28;20160;-73
2021/05/29 10:53:50;;;;;;;1.23;0.40;;;19.40;99.90;;;;;;5097081;28;20190;-73
2021/05/29 10:56:16;;;;;;;0.68;0.68;;;19.10;99.90;;;;;;5091873;28;20163;-73
2021/05/29 10:58:59;;;;;;;1.65;0.43;;;19.00;99.90;;;;;;5109799;28;20170;-72
2021/05/29 11:01:38;;;;;;;0.20;0.20;;;18.80;99.90;;;;;;5109832;28;20155;-73
2021/05/29 11:04:15;;;;;;;0.35;0.35;;;18.40;99.90;;;;;;5091392;28;20203;-72
2021/05/29 11:06:51;;;;;;;3.40;0.90;;;18.40;99.90;;;;;;5109658;28;20148;-72
2021/05/29 11:09:30;;;;;;;0.30;0.30;;;18.60;99.90;;;;;;5091445;28;20167;-72
2021/05/29 11:12:03;;;;;;;0.85;0.85;;;18.80;99.90;;;;;;5091366;28;20607;-73
2021/05/29 11:14:49;;;;;;;0.30;0.30;;;18.80;99.90;;;;;;5109296;28;20256;-73
2021/05/29 11:17:17;;;;;;;1.05;0.52;;;18.60;99.90;;;;;;5109304;28;20212;-73
2021/05/29 11:19:59;;;;;;;0.28;0.28;;;18.30;99.90;;;;;;5108814;28;20171;-73
2021/05/29 11:22:25;;;;;;;0.45;0.45;;;18.40;99.90;;;;;;5109314;28;20219;-73
2021/05/29 11:24:54;;;;;;;0.52;0.52;;;18.50;99.90;;;;;;5109220;28;20190;-72
2021/05/29 11:27:21;;;;;;;0.45;0.45;;;18.70;99.90;;;;;;5109380;28;20155;-72
2021/05/29 11:29:58;;;;;;;0.43;0.43;;;18.90;99.90;;;;;;5103087;28;20707;-73
2021/05/29 11:35:23;;;;;;;0.30;0.30;;;19.00;99.90;;;;;;5046521;28;20185;-72
2021/05/29 11:38:19;;;;;;;1.13;0.70;;;18.90;99.90;;;;;;5050038;28;20254;-72
2021/05/29 11:41:11;;;;;;;0.25;0.25;;;18.80;99.90;;;;;;5049630;28;20175;-73
2021/05/29 11:43:40;;;;;;;0.10;0.10;;;18.80;99.90;;;;;;5066214;28;20221;-72
2021/05/29 11:46:12;;;;;;;0.30;0.30;;;19.00;99.90;;;;;;5066695;28;20212;-72
2021/05/29 11:48:42;;;;;;;2.75;0.95;;;19.00;99.90;;;;;;5066655;28;20181;-73
2021/05/29 11:51:13;;;;;;;0.68;0.68;;;18.60;99.90;;;;;;5049773;28;20188;-72
2021/05/29 11:53:42;;;;;;;0.38;0.38;;;18.10;99.90;;;;;;5066317;28;20260;-72
2021/05/29 11:56:09;;;;;;;0.10;0.10;;;17.80;99.90;;;;;;5066455;28;20161;-72
2021/05/29 11:58:49;;;;;;;0.65;0.65;;;17.60;99.90;;;;;;5066341;28;20184;-72
2021/05/29 12:01:18;;;;;;;0.20;0.20;;;17.10;99.90;;;;;;5066346;28;20165;-72
2021/05/29 12:03:59;;;;;;;0.57;0.57;;;17.00;99.90;;;;;;5066135;28;20320;-72
2021/05/29 12:06:38;;;;;;;0.10;0.10;;;17.10;99.90;;;;;;5049608;28;20194;-72
2021/05/29 12:09:14;;;;;;;0.10;0.10;;;17.20;99.90;;;;;;5066231;28;20175;-73
2021/05/29 12:11:45;;;;;;;0.93;0.77;;;17.30;99.90;;;;;;5084287;28;20215;-72
2021/05/29 12:14:16;;;;;;;0.35;0.35;;;17.40;99.90;;;;;;5070135;28;20209;-72
2021/05/29 12:16:48;;;;;;;0.30;0.30;;;17.50;99.90;;;;;;5088885;28;20160;-73
2021/05/29 12:19:38;;;;;;;1.40;0.55;;;17.30;99.90;;;;;;5070471;28;20182;-73
2021/05/29 12:22:10;;;;;;;0.95;0.95;;;17.10;99.90;;;;;;5088785;28;20238;-73
2021/05/29 12:25:04;;;;;;;0.20;0.20;;;17.60;99.90;;;;;;5088573;28;20199;-73
2021/05/29 12:27:32;;;;;;;0.63;0.55;;;18.20;99.90;;;;;;5087449;28;20191;-73
2021/05/29 12:30:19;;;;;;;0.43;0.43;;;18.10;99.90;;;;;;5088758;28;20145;-73
2021/05/29 12:32:49;;;;;;;1.65;0.60;;;17.70;99.90;;;;;;5088107;28;20204;-73
2021/05/29 12:35:30;;;;;;;0.95;0.95;;;17.80;99.90;;;;;;5096496;28;20193;-73
2021/05/29 12:37:56;;;;;;;1.50;0.60;;;17.60;99.90;;;;;;5070720;28;20182;-72
2021/05/29 12:40:23;;;;;;;0.73;0.73;;;17.90;99.90;;;;;;5094831;28;20225;-73
2021/05/29 12:42:53;;;;;;;0.25;0.22;;;18.20;99.90;;;;;;5105146;28;20211;-73
2021/05/29 12:45:24;;;;;;;0.50;0.50;;;18.20;99.90;;;;;;5106329;28;20223;-73
2021/05/29 12:48:03;;;;;;;0.40;0.30;;;18.20;99.90;;;;;;5095463;28;20168;-73
2021/05/29 12:50:59;;;;;;;0.32;0.32;;;18.50;99.90;;;;;;5088461;28;20164;-72
2021/05/29 12:53:26;;;;;;;0.40;0.40;;;18.50;99.90;;;;;;5088258;28;20191;-73
2021/05/29 12:56:14;;;;;;;0.30;0.30;;;18.60;99.90;;;;;;5088065;28;20187;-73
2021/05/29 12:58:55;;;;;;;4.68;0.80;;;18.10;99.90;;;;;;5108176;28;20163;-72
2021/05/29 13:02:07;;;;;;;0.52;0.52;;;17.90;99.90;;;;;;5108199;28;20171;-72
2021/05/29 13:12:37;;;;;;;0.68;0.45;;;19.10;99.90;;;;;;5111923;28;20191;-73
2021/05/29 13:15:19;;;;;;;0.50;0.50;;;18.70;99.90;;;;;;5111670;28;20170;-73
2021/05/29 13:17:46;;;;;;;0.10;0.10;;;18.10;99.90;;;;;;5111693;28;20193;-72
2021/05/29 13:20:22;;;;;;;0.17;0.17;;;17.80;99.90;;;;;;5111782;28;20163;-72